Time;durP1;ratioP1;P1;durP2;ratioP2;P2;SDS_P1;SDS_P2;PMS_P1;PMS_P2;Temp;Humidity;BMP_temperature;BMP_pressure;BME280_temperature;BME280_humidity;BME280_pressure;Samples;Min_cycle;Max_cycle;Signal;HPM_P1;HPM_P2
2022/07/30 00:00:26;;;;;;;4.87;4.37;;;;;;;;;;5015141;28;20493;-78
2022/07/30 00:02:54;;;;;;;4.43;4.03;;;;;;;;;;5016347;28;20445;-77
2022/07/30 00:05:21;;;;;;;5.47;4.47;;;;;;;;;;5008714;28;20436;-78
2022/07/30 00:07:49;;;;;;;4.67;4.27;;;;;;;;;;4999651;28;20938;-78
2022/07/30 00:10:16;;;;;;;8.37;4.70;;;;;;;;;;4996760;28;20418;-79
2022/07/30 00:12:43;;;;;;;5.97;4.27;;;;;;;;;;4994534;28;20443;-79
2022/07/30 00:15:10;;;;;;;4.73;3.93;;;;;;;;;;4994366;28;20842;-79
2022/07/30 00:17:37;;;;;;;7.63;5.03;;;;;;;;;;4993916;28;20459;-78
2022/07/30 00:20:07;;;;;;;6.53;4.37;;;;;;;;;;4994575;28;20578;-79
2022/07/30 00:22:34;;;;;;;5.30;4.60;;;;;;;;;;4995103;28;20520;-80
2022/07/30 00:25:01;;;;;;;7.97;4.33;;;;;;;;;;4996293;28;20426;-79
2022/07/30 00:27:33;;;;;;;5.10;4.17;;;;;;;;;;4997282;28;20452;-77
2022/07/30 00:30:00;;;;;;;4.20;3.83;;;;;;;;;;4999564;28;20490;-77
2022/07/30 00:32:28;;;;;;;5.50;4.80;;;;;;;;;;5006514;28;20453;-79
2022/07/30 00:34:55;;;;;;;7.93;4.53;;;;;;;;;;4996046;28;20423;-79
2022/07/30 00:37:23;;;;;;;4.87;4.47;;;;;;;;;;5013529;28;20504;-79
2022/07/30 00:39:51;;;;;;;5.90;4.80;;;;;;;;;;5012897;28;20487;-79
2022/07/30 00:42:24;;;;;;;6.57;5.33;;;;;;;;;;5013993;28;20432;-76
2022/07/30 00:44:51;;;;;;;5.10;4.70;;;;;;;;;;5014025;28;20433;-76
2022/07/30 00:47:18;;;;;;;5.70;4.77;;;;;;;;;;5015184;28;20532;-78
2022/07/30 00:49:46;;;;;;;8.57;5.40;;;;;;;;;;5008596;28;20491;-77
2022/07/30 00:52:13;;;;;;;6.43;5.17;;;;;;;;;;4999436;28;20933;-77
2022/07/30 00:54:42;;;;;;;10.27;5.23;;;;;;;;;;4988759;28;20496;-80
2022/07/30 00:57:09;;;;;;;7.27;5.93;;;;;;;;;;5012945;28;20439;-81
2022/07/30 00:59:36;;;;;;;8.40;5.87;;;;;;;;;;5012525;28;20496;-76
2022/07/30 01:02:03;;;;;;;7.83;5.87;;;;;;;;;;5012328;28;20428;-80
2022/07/30 01:04:30;;;;;;;6.10;5.40;;;;;;;;;;5013723;28;20473;-77
2022/07/30 01:06:58;;;;;;;8.27;5.20;;;;;;;;;;5013556;28;20464;-79
2022/07/30 01:09:25;;;;;;;7.43;6.00;;;;;;;;;;5015082;28;20830;-78
2022/07/30 01:11:54;;;;;;;7.50;5.67;;;;;;;;;;5008245;28;20412;-78
2022/07/30 01:14:23;;;;;;;8.13;6.40;;;;;;;;;;4989047;28;20464;-79
2022/07/30 01:16:53;;;;;;;8.30;6.13;;;;;;;;;;4995299;28;20469;-77
2022/07/30 01:22:07;;;;;;;6.13;5.50;;;;;;;;;;4963846;28;20416;-77
2022/07/30 01:24:40;;;;;;;7.20;6.20;;;;;;;;;;4975450;28;20437;-78
2022/07/30 01:27:10;;;;;;;7.20;5.10;;;;;;;;;;4992931;28;20504;-81
2022/07/30 01:29:39;;;;;;;7.57;5.47;;;;;;;;;;5012015;28;20428;-78
2022/07/30 01:32:07;;;;;;;10.00;6.27;;;;;;;;;;5014773;28;20420;-78
2022/07/30 01:34:35;;;;;;;6.10;5.50;;;;;;;;;;5005237;28;20421;-77
2022/07/30 01:37:04;;;;;;;6.43;5.37;;;;;;;;;;4998281;28;20438;-77
2022/07/30 01:39:32;;;;;;;7.60;5.80;;;;;;;;;;4976925;28;20560;-78
2022/07/30 01:42:04;;;;;;;8.70;6.17;;;;;;;;;;4975567;28;20533;-77
2022/07/30 01:44:32;;;;;;;6.60;6.00;;;;;;;;;;4992750;28;20444;-79
2022/07/30 01:47:00;;;;;;;8.67;5.53;;;;;;;;;;4992369;28;20449;-79
2022/07/30 01:49:28;;;;;;;9.10;6.03;;;;;;;;;;4992579;28;20585;-78
2022/07/30 01:51:55;;;;;;;6.63;5.93;;;;;;;;;;4993921;28;20445;-77
2022/07/30 01:54:24;;;;;;;6.33;5.37;;;;;;;;;;4994355;28;20531;-78
2022/07/30 01:56:53;;;;;;;6.20;5.60;;;;;;;;;;4995863;28;21002;-77
2022/07/30 01:59:21;;;;;;;6.60;5.90;;;;;;;;;;4997955;28;20590;-78
2022/07/30 02:01:49;;;;;;;9.00;6.27;;;;;;;;;;5007402;28;20424;-78
2022/07/30 02:04:16;;;;;;;6.70;5.87;;;;;;;;;;5011671;28;20906;-80
2022/07/30 02:06:46;;;;;;;7.00;5.80;;;;;;;;;;5011701;28;21018;-78
2022/07/30 02:09:16;;;;;;;5.90;5.40;;;;;;;;;;5011518;28;20427;-79
2022/07/30 02:14:28;;;;;;;6.77;6.17;;;;;;;;;;4993062;28;20772;-76
2022/07/30 02:17:00;;;;;;;7.33;5.97;;;;;;;;;;4994002;28;21009;-76
2022/07/30 02:19:31;;;;;;;6.50;5.73;;;;;;;;;;4989569;28;20458;-76
2022/07/30 02:22:01;;;;;;;7.50;5.87;;;;;;;;;;4997818;28;20449;-75
2022/07/30 02:24:30;;;;;;;6.77;6.17;;;;;;;;;;4992460;28;20808;-79
2022/07/30 02:27:01;;;;;;;7.23;6.50;;;;;;;;;;4991825;28;20457;-76
2022/07/30 02:29:29;;;;;;;8.37;6.10;;;;;;;;;;4992547;28;20476;-77
2022/07/30 02:31:58;;;;;;;8.60;7.70;;;;;;;;;;4991951;28;20406;-79
2022/07/30 02:34:26;;;;;;;7.83;7.03;;;;;;;;;;4991799;28;20449;-78
2022/07/30 02:36:54;;;;;;;8.17;7.27;;;;;;;;;;4993997;28;20828;-76
2022/07/30 02:39:22;;;;;;;9.33;7.20;;;;;;;;;;4977070;28;21065;-78
2022/07/30 02:41:50;;;;;;;10.60;7.60;;;;;;;;;;4997000;28;20433;-76
2022/07/30 02:44:18;;;;;;;11.57;8.90;;;;;;;;;;4997912;28;20451;-75
2022/07/30 02:46:46;;;;;;;13.83;9.50;;;;;;;;;;4991599;28;20459;-76
2022/07/30 02:49:15;;;;;;;9.27;8.30;;;;;;;;;;4974531;28;20841;-75
2022/07/30 02:51:43;;;;;;;10.50;9.40;;;;;;;;;;4991884;28;20477;-75
2022/07/30 02:54:10;;;;;;;12.60;9.53;;;;;;;;;;4991554;28;20419;-75
2022/07/30 02:56:39;;;;;;;11.33;8.90;;;;;;;;;;4993133;28;20438;-77
2022/07/30 02:59:07;;;;;;;11.90;8.53;;;;;;;;;;5013226;28;20472;-78
2022/07/30 03:01:35;;;;;;;8.60;6.80;;;;;;;;;;5013404;28;20812;-78
2022/07/30 03:04:02;;;;;;;8.13;7.23;;;;;;;;;;5000994;28;20469;-78
2022/07/30 03:06:32;;;;;;;12.40;8.07;;;;;;;;;;4997104;28;21194;-75
2022/07/30 03:09:00;;;;;;;8.80;8.00;;;;;;;;;;5010988;28;20478;-78
2022/07/30 03:11:28;;;;;;;11.03;7.73;;;;;;;;;;5015119;28;20457;-80
2022/07/30 03:13:55;;;;;;;12.63;8.40;;;;;;;;;;5015263;28;20479;-78
2022/07/30 03:16:23;;;;;;;8.33;7.33;;;;;;;;;;5014811;28;20549;-79
2022/07/30 03:18:51;;;;;;;8.97;7.20;;;;;;;;;;5014456;28;20451;-76
2022/07/30 03:21:20;;;;;;;8.10;6.83;;;;;;;;;;5017028;28;20418;-78
2022/07/30 03:23:50;;;;;;;7.77;7.10;;;;;;;;;;5016846;28;20453;-77
2022/07/30 03:26:18;;;;;;;13.40;7.57;;;;;;;;;;5004584;28;20790;-78
2022/07/30 03:28:47;;;;;;;10.13;7.90;;;;;;;;;;5000909;28;20776;-76
2022/07/30 03:31:15;;;;;;;9.80;8.80;;;;;;;;;;5012749;28;20444;-77
2022/07/30 03:33:42;;;;;;;9.47;8.27;;;;;;;;;;5014457;28;20629;-79
2022/07/30 03:36:10;;;;;;;7.93;7.13;;;;;;;;;;5014467;28;20886;-78
2022/07/30 03:38:38;;;;;;;7.67;6.70;;;;;;;;;;5014611;28;20413;-77
2022/07/30 03:41:08;;;;;;;8.13;7.33;;;;;;;;;;5014160;28;20976;-78
2022/07/30 03:43:35;;;;;;;9.77;7.40;;;;;;;;;;4999620;28;20864;-78
2022/07/30 03:46:04;;;;;;;7.37;6.47;;;;;;;;;;5016716;28;20554;-78
2022/07/30 03:48:32;;;;;;;7.40;6.43;;;;;;;;;;4987019;28;20415;-77
2022/07/30 03:50:59;;;;;;;8.23;7.40;;;;;;;;;;4983709;28;21198;-76
2022/07/30 03:53:27;;;;;;;8.73;7.13;;;;;;;;;;4993976;28;20528;-78
2022/07/30 03:55:54;;;;;;;11.30;6.57;;;;;;;;;;4994580;28;20473;-79
2022/07/30 03:58:23;;;;;;;8.27;6.63;;;;;;;;;;4977476;28;21044;-79
2022/07/30 04:00:51;;;;;;;8.43;7.47;;;;;;;;;;4994275;28;20591;-77
2022/07/30 04:03:27;;;;;;;9.80;7.10;;;;;;;;;;4976737;28;20445;-78
2022/07/30 04:05:55;;;;;;;8.10;6.70;;;;;;;;;;4996522;28;20444;-78
2022/07/30 04:08:22;;;;;;;10.60;7.50;;;;;;;;;;4996531;28;20474;-76
2022/07/30 04:10:50;;;;;;;8.63;7.37;;;;;;;;;;4991783;28;20418;-78
2022/07/30 04:13:17;;;;;;;8.03;7.30;;;;;;;;;;4999792;28;20868;-78
2022/07/30 04:15:48;;;;;;;8.50;7.50;;;;;;;;;;4994561;28;20437;-78
2022/07/30 04:18:16;;;;;;;9.13;7.30;;;;;;;;;;4994113;28;20441;-77
2022/07/30 04:20:45;;;;;;;7.60;6.77;;;;;;;;;;4993322;28;20517;-78
2022/07/30 04:23:12;;;;;;;10.63;8.03;;;;;;;;;;4976895;28;20810;-78
2022/07/30 04:25:40;;;;;;;9.83;8.03;;;;;;;;;;4994466;28;20467;-79
2022/07/30 04:28:09;;;;;;;8.63;7.57;;;;;;;;;;5015865;28;20528;-76
2022/07/30 04:30:37;;;;;;;13.27;8.13;;;;;;;;;;5015889;28;20446;-79
2022/07/30 04:33:06;;;;;;;10.03;8.40;;;;;;;;;;5004623;28;20458;-77
2022/07/30 04:35:34;;;;;;;9.50;7.80;;;;;;;;;;4999818;28;20435;-80
2022/07/30 04:38:02;;;;;;;11.47;8.77;;;;;;;;;;4994701;28;20460;-77
2022/07/30 04:40:31;;;;;;;8.30;7.50;;;;;;;;;;4993601;28;20454;-79
2022/07/30 04:42:58;;;;;;;9.47;8.43;;;;;;;;;;4976690;28;20444;-77
2022/07/30 04:45:26;;;;;;;8.17;7.40;;;;;;;;;;4976717;28;20544;-79
2022/07/30 04:47:53;;;;;;;9.87;7.40;;;;;;;;;;4993802;28;20436;-80
2022/07/30 04:50:23;;;;;;;10.60;7.80;;;;;;;;;;5014965;28;20921;-78
2022/07/30 04:52:51;;;;;;;8.60;7.80;;;;;;;;;;5015628;28;20425;-78
2022/07/30 04:55:19;;;;;;;11.10;8.73;;;;;;;;;;5004328;28;20425;-76
2022/07/30 04:57:47;;;;;;;11.20;7.80;;;;;;;;;;4999396;28;20433;-76
2022/07/30 05:00:14;;;;;;;10.00;7.90;;;;;;;;;;5009793;28;20466;-77
2022/07/30 05:02:42;;;;;;;8.70;7.90;;;;;;;;;;5012840;28;20444;-76
2022/07/30 05:05:11;;;;;;;9.03;8.20;;;;;;;;;;5012885;28;20419;-79
2022/07/30 05:07:40;;;;;;;11.53;8.80;;;;;;;;;;5012748;28;20433;-78
2022/07/30 05:10:09;;;;;;;10.30;8.50;;;;;;;;;;5012681;28;20423;-76
2022/07/30 05:12:37;;;;;;;9.13;8.20;;;;;;;;;;4995282;28;20413;-76
2022/07/30 05:15:04;;;;;;;14.27;7.80;;;;;;;;;;4995435;28;20575;-79
2022/07/30 05:17:32;;;;;;;8.47;7.57;;;;;;;;;;4997629;28;20458;-77
2022/07/30 05:19:59;;;;;;;9.17;8.27;;;;;;;;;;4998806;28;21991;-78
2022/07/30 05:22:28;;;;;;;12.17;9.30;;;;;;;;;;4993825;28;20417;-78
2022/07/30 05:24:57;;;;;;;11.93;8.30;;;;;;;;;;4992892;28;20444;-75
2022/07/30 05:27:24;;;;;;;14.70;8.70;;;;;;;;;;4993027;28;20928;-76
2022/07/30 05:29:52;;;;;;;12.70;8.97;;;;;;;;;;4992984;28;20462;-76
2022/07/30 05:32:19;;;;;;;12.63;9.60;;;;;;;;;;4992854;28;20436;-76
2022/07/30 05:34:46;;;;;;;10.70;8.87;;;;;;;;;;4994726;28;20459;-78
2022/07/30 05:37:13;;;;;;;14.43;9.70;;;;;;;;;;4994990;28;20442;-76
2022/07/30 05:39:41;;;;;;;15.47;9.00;;;;;;;;;;4997258;28;20921;-78
2022/07/30 05:42:09;;;;;;;15.40;9.57;;;;;;;;;;4998757;28;20439;-76
2022/07/30 05:44:36;;;;;;;12.20;10.23;;;;;;;;;;5008358;28;20457;-78
2022/07/30 05:47:04;;;;;;;13.60;10.33;;;;;;;;;;5012351;28;20478;-75
2022/07/30 05:49:31;;;;;;;13.17;11.03;;;;;;;;;;5012180;28;20932;-76
2022/07/30 05:51:58;;;;;;;16.80;12.63;;;;;;;;;;5012013;28;20553;-77
2022/07/30 05:54:25;;;;;;;13.53;10.33;;;;;;;;;;5012499;28;20443;-78
2022/07/30 05:56:52;;;;;;;12.70;10.77;;;;;;;;;;5007554;28;20881;-78
2022/07/30 05:59:21;;;;;;;12.70;10.80;;;;;;;;;;4998163;28;20486;-79
2022/07/30 06:01:48;;;;;;;11.57;9.73;;;;;;;;;;5003336;28;20482;-80
2022/07/30 06:04:15;;;;;;;16.60;11.03;;;;;;;;;;5011955;28;20439;-80
2022/07/30 06:06:43;;;;;;;13.07;10.33;;;;;;;;;;5011975;28;20497;-75
2022/07/30 06:09:10;;;;;;;15.13;12.50;;;;;;;;;;5012430;28;20857;-74
2022/07/30 06:11:37;;;;;;;17.40;10.70;;;;;;;;;;5012663;28;20530;-81
2022/07/30 06:14:04;;;;;;;11.90;9.00;;;;;;;;;;5012546;28;20569;-77
2022/07/30 06:16:33;;;;;;;15.87;11.10;;;;;;;;;;5013904;28;20980;-80
2022/07/30 06:19:00;;;;;;;14.03;10.30;;;;;;;;;;5010251;28;20443;-74
2022/07/30 06:21:28;;;;;;;13.37;9.87;;;;;;;;;;4988526;28;20574;-79
2022/07/30 06:23:55;;;;;;;15.40;10.93;;;;;;;;;;4996041;28;20428;-77
2022/07/30 06:26:22;;;;;;;13.77;11.20;;;;;;;;;;4992474;28;20991;-82
2022/07/30 06:28:50;;;;;;;10.60;9.33;;;;;;;;;;4992597;28;20448;-77
2022/07/30 06:31:17;;;;;;;13.47;9.90;;;;;;;;;;4992129;28;20479;-80
2022/07/30 06:33:45;;;;;;;14.30;9.90;;;;;;;;;;4993052;28;20436;-82
2022/07/30 06:36:13;;;;;;;11.43;9.60;;;;;;;;;;5001905;28;20900;-81
2022/07/30 06:38:40;;;;;;;11.27;9.47;;;;;;;;;;5013910;28;20546;-79
2022/07/30 06:41:08;;;;;;;14.70;10.60;;;;;;;;;;5011370;28;20925;-83
2022/07/30 06:43:35;;;;;;;14.87;11.00;;;;;;;;;;4997158;28;20432;-78
2022/07/30 06:46:02;;;;;;;13.93;10.40;;;;;;;;;;5000968;28;20489;-78
2022/07/30 06:48:31;;;;;;;13.93;11.30;;;;;;;;;;5011180;28;20746;-76
2022/07/30 06:50:59;;;;;;;12.07;10.17;;;;;;;;;;5011283;28;20902;-74
2022/07/30 06:53:26;;;;;;;14.40;10.90;;;;;;;;;;5011550;28;20439;-83
2022/07/30 06:55:54;;;;;;;14.53;11.27;;;;;;;;;;5011651;28;20481;-75
2022/07/30 06:58:21;;;;;;;14.70;9.20;;;;;;;;;;5011502;28;20517;-75
2022/07/30 07:00:48;;;;;;;17.17;10.00;;;;;;;;;;5013387;28;21002;-75
2022/07/30 07:03:15;;;;;;;15.50;10.30;;;;;;;;;;5013719;28;20441;-78
2022/07/30 07:05:42;;;;;;;16.20;10.97;;;;;;;;;;4997703;28;20770;-82
2022/07/30 07:08:11;;;;;;;14.53;10.20;;;;;;;;;;4997721;28;20533;-76
2022/07/30 07:10:38;;;;;;;13.87;10.50;;;;;;;;;;4990994;28;20822;-77
2022/07/30 07:13:06;;;;;;;15.33;9.37;;;;;;;;;;4991302;28;20444;-75
2022/07/30 07:15:33;;;;;;;14.00;10.63;;;;;;;;;;4991765;28;20444;-80
2022/07/30 07:18:00;;;;;;;15.90;10.80;;;;;;;;;;4992171;28;20459;-77
2022/07/30 07:20:27;;;;;;;18.50;14.30;;;;;;;;;;4995619;28;20582;-73
2022/07/30 07:22:54;;;;;;;18.80;14.00;;;;;;;;;;5013229;28;20449;-76
2022/07/30 07:25:23;;;;;;;17.77;12.20;;;;;;;;;;5013100;28;20442;-77
2022/07/30 07:27:50;;;;;;;19.60;16.07;;;;;;;;;;5000300;28;20809;-77
2022/07/30 07:30:17;;;;;;;17.53;13.17;;;;;;;;;;4980048;28;20448;-77
2022/07/30 07:32:45;;;;;;;19.10;12.57;;;;;;;;;;5008882;28;20439;-78
2022/07/30 07:35:12;;;;;;;19.77;14.27;;;;;;;;;;5010809;28;20447;-79
2022/07/30 07:37:39;;;;;;;23.30;15.43;;;;;;;;;;5010729;28;20494;-77
2022/07/30 07:40:07;;;;;;;21.73;15.03;;;;;;;;;;5011131;28;20443;-83
2022/07/30 07:42:36;;;;;;;15.40;13.47;;;;;;;;;;5009894;28;20954;-77
2022/07/30 07:45:03;;;;;;;17.73;13.63;;;;;;;;;;4999098;28;20436;-80
2022/07/30 07:47:30;;;;;;;16.40;14.40;;;;;;;;;;4997333;28;20469;-78
2022/07/30 07:49:57;;;;;;;19.63;14.13;;;;;;;;;;4991349;28;20534;-79
2022/07/30 07:52:25;;;;;;;16.33;13.83;;;;;;;;;;4991097;28;20439;-79
2022/07/30 07:54:52;;;;;;;20.80;15.50;;;;;;;;;;4991628;28;20452;-80
2022/07/30 07:57:19;;;;;;;19.00;15.97;;;;;;;;;;4995482;28;20559;-78
2022/07/30 07:59:50;;;;;;;19.83;13.30;;;;;;;;;;4995657;28;20511;-76
2022/07/30 08:02:17;;;;;;;16.77;11.60;;;;;;;;;;5016481;28;20585;-75
2022/07/30 08:04:45;;;;;;;14.23;11.40;;;;;;;;;;5016334;28;21019;-75
2022/07/30 08:07:12;;;;;;;15.50;11.53;;;;;;;;;;5006214;28;20455;-75
2022/07/30 08:09:39;;;;;;;11.50;8.63;;;;;;;;;;4983295;28;20446;-78
2022/07/30 08:12:07;;;;;;;13.43;9.60;;;;;;;;;;4992999;28;20431;-77
2022/07/30 08:14:34;;;;;;;14.67;12.40;;;;;;;;;;4994392;28;20451;-78
2022/07/30 08:17:03;;;;;;;15.10;10.60;;;;;;;;;;4994432;28;20468;-79
2022/07/30 08:19:30;;;;;;;15.37;11.33;;;;;;;;;;4994473;28;20523;-77
2022/07/30 08:21:58;;;;;;;15.80;9.20;;;;;;;;;;4994609;28;20501;-77
2022/07/30 08:24:25;;;;;;;14.30;9.50;;;;;;;;;;4995607;28;20825;-79
2022/07/30 08:26:52;;;;;;;14.50;8.87;;;;;;;;;;4996425;28;20551;-74
2022/07/30 08:29:20;;;;;;;12.13;8.47;;;;;;;;;;4993915;28;20432;-77
2022/07/30 08:31:47;;;;;;;14.63;9.30;;;;;;;;;;4999726;28;20431;-76
2022/07/30 08:34:16;;;;;;;9.40;7.30;;;;;;;;;;4996813;28;20448;-78
2022/07/30 08:36:44;;;;;;;10.30;7.70;;;;;;;;;;4993943;28;20486;-75
2022/07/30 08:39:11;;;;;;;13.97;8.20;;;;;;;;;;4994004;28;20450;-79
2022/07/30 08:41:38;;;;;;;14.07;8.13;;;;;;;;;;4994025;28;20594;-80
2022/07/30 08:44:07;;;;;;;11.67;8.33;;;;;;;;;;4994452;28;20440;-78
2022/07/30 08:46:35;;;;;;;11.20;9.50;;;;;;;;;;5006786;28;20478;-78
2022/07/30 08:49:02;;;;;;;11.50;7.00;;;;;;;;;;5015685;28;20533;-77
2022/07/30 08:51:31;;;;;;;12.17;8.80;;;;;;;;;;5011424;28;20800;-78
2022/07/30 08:53:59;;;;;;;12.27;8.60;;;;;;;;;;4999480;28;20427;-78
2022/07/30 08:56:27;;;;;;;9.57;7.40;;;;;;;;;;5003598;28;20883;-77
2022/07/30 08:58:54;;;;;;;10.97;8.13;;;;;;;;;;5012834;28;20804;-78
2022/07/30 09:01:22;;;;;;;7.00;5.77;;;;;;;;;;5012947;28;21113;-74
2022/07/30 09:03:49;;;;;;;7.50;6.70;;;;;;;;;;5013282;28;20442;-76
2022/07/30 09:06:17;;;;;;;13.17;8.27;;;;;;;;;;5013113;28;20553;-80
2022/07/30 09:08:45;;;;;;;8.63;7.03;;;;;;;;;;5013422;28;20462;-79
2022/07/30 09:11:13;;;;;;;9.40;7.00;;;;;;;;;;5015081;28;20451;-78
2022/07/30 09:13:41;;;;;;;11.40;7.93;;;;;;;;;;5012692;28;20449;-78
2022/07/30 09:16:19;;;;;;;9.90;7.10;;;;;;;;;;4999187;28;20461;-81
2022/07/30 09:18:46;;;;;;;9.00;8.10;;;;;;;;;;4990355;28;20457;-80
2022/07/30 09:21:16;;;;;;;9.57;8.50;;;;;;;;;;4993326;28;20483;-80
2022/07/30 09:23:56;;;;;;;8.90;7.40;;;;;;;;;;4993037;28;20531;-76
2022/07/30 09:26:24;;;;;;;10.83;7.73;;;;;;;;;;4993013;28;20483;-76
2022/07/30 09:28:51;;;;;;;11.43;8.80;;;;;;;;;;4993754;28;20872;-80
2022/07/30 09:31:19;;;;;;;7.90;7.20;;;;;;;;;;4993656;28;20562;-82
2022/07/30 09:33:46;;;;;;;11.37;9.67;;;;;;;;;;4995214;28;20450;-77
2022/07/30 09:36:15;;;;;;;8.53;7.73;;;;;;;;;;4976446;28;20981;-76
2022/07/30 09:38:44;;;;;;;12.13;10.07;;;;;;;;;;4996525;28;20538;-75
2022/07/30 09:41:14;;;;;;;10.93;9.10;;;;;;;;;;5001982;28;20475;-76
2022/07/30 09:43:43;;;;;;;11.30;8.40;;;;;;;;;;5012340;28;20526;-75
2022/07/30 09:46:10;;;;;;;9.67;8.30;;;;;;;;;;5012073;28;20558;-79
2022/07/30 09:48:38;;;;;;;11.73;10.00;;;;;;;;;;5011947;28;20439;-77
2022/07/30 09:51:05;;;;;;;11.60;8.67;;;;;;;;;;5012051;28;20442;-77
2022/07/30 09:53:32;;;;;;;8.93;8.03;;;;;;;;;;5010026;28;20462;-78
2022/07/30 09:55:59;;;;;;;14.07;9.67;;;;;;;;;;4998045;28;20455;-77
2022/07/30 09:58:39;;;;;;;9.73;8.77;;;;;;;;;;4989050;28;20907;-81
2022/07/30 10:01:08;;;;;;;11.60;8.87;;;;;;;;;;4992061;28;20475;-77
2022/07/30 10:03:41;;;;;;;9.80;8.80;;;;;;;;;;4992023;28;20443;-80
2022/07/30 10:06:09;;;;;;;10.43;9.07;;;;;;;;;;4992468;28;20566;-81
2022/07/30 10:08:40;;;;;;;12.73;6.90;;;;;;;;;;4992806;28;20440;-76
2022/07/30 10:11:10;;;;;;;10.47;6.97;;;;;;;;;;4992895;28;20448;-80
2022/07/30 10:13:39;;;;;;;9.77;5.60;;;;;;;;;;4994395;28;20447;-78
2022/07/30 10:16:06;;;;;;;7.13;6.30;;;;;;;;;;4994242;28;20554;-75
2022/07/30 10:18:37;;;;;;;8.70;6.00;;;;;;;;;;4986173;28;20519;-78
2022/07/30 10:21:12;;;;;;;5.93;5.00;;;;;;;;;;4997169;28;20434;-80
2022/07/30 10:24:00;;;;;;;7.30;5.33;;;;;;;;;;5011105;28;20501;-75
2022/07/30 10:26:27;;;;;;;6.40;5.70;;;;;;;;;;5011198;28;20470;-75
2022/07/30 10:28:57;;;;;;;8.17;4.97;;;;;;;;;;5011651;28;20509;-77
2022/07/30 10:31:26;;;;;;;7.10;5.80;;;;;;;;;;5012219;28;20453;-76
2022/07/30 10:33:57;;;;;;;5.87;5.03;;;;;;;;;;5011844;28;20469;-76
2022/07/30 10:36:24;;;;;;;5.80;4.70;;;;;;;;;;5013048;28;20489;-79
2022/07/30 10:38:52;;;;;;;6.00;4.70;;;;;;;;;;5013713;28;20449;-76
2022/07/30 10:41:27;;;;;;;5.67;4.77;;;;;;;;;;4980895;28;20420;-81
2022/07/30 10:44:09;;;;;;;5.90;3.97;;;;;;;;;;4988282;28;20803;-77
2022/07/30 10:46:44;;;;;;;9.87;4.50;;;;;;;;;;4975957;28;20462;-78
2022/07/30 10:49:13;;;;;;;4.40;4.00;;;;;;;;;;4974395;28;20530;-79
2022/07/30 10:51:54;;;;;;;6.10;4.97;;;;;;;;;;4991721;28;20531;-77
2022/07/30 10:54:36;;;;;;;7.97;5.03;;;;;;;;;;4992233;28;20791;-76
2022/07/30 10:57:04;;;;;;;11.13;6.43;;;;;;;;;;4977202;28;20490;-78
2022/07/30 10:59:51;;;;;;;6.93;5.63;;;;;;;;;;4993667;28;20479;-77
2022/07/30 11:02:20;;;;;;;8.53;5.23;;;;;;;;;;4978931;28;20965;-77
2022/07/30 11:04:48;;;;;;;5.60;4.43;;;;;;;;;;4978698;28;20524;-77
2022/07/30 11:07:30;;;;;;;6.67;3.90;;;;;;;;;;5000676;28;20809;-77
2022/07/30 11:09:59;;;;;;;3.93;3.53;;;;;;;;;;4995876;28;20940;-78
2022/07/30 11:12:41;;;;;;;5.30;4.17;;;;;;;;;;4993800;28;20922;-76
2022/07/30 11:15:08;;;;;;;5.90;4.30;;;;;;;;;;5010271;28;20461;-78
2022/07/30 11:17:50;;;;;;;5.23;3.80;;;;;;;;;;5011582;28;20459;-77
2022/07/30 11:20:19;;;;;;;4.63;4.00;;;;;;;;;;5011324;28;20549;-79
2022/07/30 11:22:48;;;;;;;5.80;4.40;;;;;;;;;;5013214;28;20485;-77
2022/07/30 11:25:31;;;;;;;6.47;4.37;;;;;;;;;;4992869;28;20506;-77
2022/07/30 11:28:00;;;;;;;3.67;3.10;;;;;;;;;;4982425;28;20458;-77
2022/07/30 11:30:35;;;;;;;9.30;4.10;;;;;;;;;;4987778;28;20439;-78
2022/07/30 11:33:17;;;;;;;9.00;4.40;;;;;;;;;;5014605;28;20449;-78
2022/07/30 11:36:05;;;;;;;6.00;3.53;;;;;;;;;;5013794;28;20874;-77
2022/07/30 11:38:47;;;;;;;11.10;4.23;;;;;;;;;;5014935;28;20442;-77
2022/07/30 11:41:14;;;;;;;6.60;3.73;;;;;;;;;;4999199;28;20443;-77
2022/07/30 11:43:41;;;;;;;6.07;3.83;;;;;;;;;;5015883;28;20548;-77
2022/07/30 11:46:09;;;;;;;4.20;3.50;;;;;;;;;;5016527;28;20553;-76
2022/07/30 11:48:38;;;;;;;4.40;3.10;;;;;;;;;;4989857;28;20436;-78
2022/07/30 11:51:07;;;;;;;3.37;3.07;;;;;;;;;;4982787;28;20934;-79
2022/07/30 11:53:35;;;;;;;4.10;3.70;;;;;;;;;;5009312;28;20443;-77
2022/07/30 11:56:03;;;;;;;8.37;4.77;;;;;;;;;;5013981;28;21096;-76
2022/07/30 11:58:31;;;;;;;5.87;3.50;;;;;;;;;;4997027;28;20475;-79
2022/07/30 12:01:00;;;;;;;4.83;3.70;;;;;;;;;;5014121;28;20467;-77
2022/07/30 12:03:30;;;;;;;4.70;3.73;;;;;;;;;;5014345;28;20581;-80
2022/07/30 12:05:58;;;;;;;4.90;3.23;;;;;;;;;;5015273;28;20724;-76
2022/07/30 12:08:26;;;;;;;3.83;3.43;;;;;;;;;;5016555;28;20453;-76
2022/07/30 12:10:58;;;;;;;3.70;3.17;;;;;;;;;;5008311;28;20454;-78
2022/07/30 12:13:25;;;;;;;5.43;3.57;;;;;;;;;;4983349;28;20784;-79
2022/07/30 12:15:53;;;;;;;6.67;2.80;;;;;;;;;;4979057;28;20470;-78
2022/07/30 12:18:24;;;;;;;4.70;3.07;;;;;;;;;;4994093;28;20436;-79
2022/07/30 12:20:54;;;;;;;6.27;3.57;;;;;;;;;;4976935;28;20450;-78
2022/07/30 12:23:22;;;;;;;3.90;2.80;;;;;;;;;;4994694;28;20482;-76
2022/07/30 12:25:50;;;;;;;4.63;3.53;;;;;;;;;;4994702;28;20444;-81
2022/07/30 12:28:21;;;;;;;7.87;3.60;;;;;;;;;;5011542;28;20486;-78
2022/07/30 12:30:48;;;;;;;4.57;3.20;;;;;;;;;;5016099;28;20530;-75
2022/07/30 12:33:15;;;;;;;4.23;3.20;;;;;;;;;;5009903;28;20985;-74
2022/07/30 12:35:43;;;;;;;4.57;3.40;;;;;;;;;;4999720;28;20440;-75
2022/07/30 12:38:10;;;;;;;4.10;3.07;;;;;;;;;;4991381;28;21007;-74
2022/07/30 12:40:52;;;;;;;5.53;3.50;;;;;;;;;;4993530;28;20551;-75
2022/07/30 12:43:19;;;;;;;7.80;2.70;;;;;;;;;;4993742;28;20550;-75
2022/07/30 12:45:46;;;;;;;6.00;3.50;;;;;;;;;;4993960;28;20534;-75
2022/07/30 12:48:14;;;;;;;3.30;3.00;;;;;;;;;;4994139;28;20543;-77
2022/07/30 12:50:41;;;;;;;5.20;3.47;;;;;;;;;;4994788;28;20941;-77
2022/07/30 12:53:08;;;;;;;5.50;3.00;;;;;;;;;;4995839;28;20546;-76
2022/07/30 12:55:36;;;;;;;6.07;2.80;;;;;;;;;;4994171;28;20440;-77
2022/07/30 12:58:05;;;;;;;4.17;2.90;;;;;;;;;;4999359;28;20546;-77
2022/07/30 13:00:34;;;;;;;5.70;2.87;;;;;;;;;;4976102;28;21147;-76
2022/07/30 13:03:02;;;;;;;2.50;2.30;;;;;;;;;;4974155;28;20559;-76
2022/07/30 13:05:44;;;;;;;4.90;2.70;;;;;;;;;;4974080;28;21076;-75
2022/07/30 13:08:11;;;;;;;3.97;2.63;;;;;;;;;;4973201;28;20444;-76
2022/07/30 13:10:39;;;;;;;5.90;3.10;;;;;;;;;;4974672;28;20816;-76
2022/07/30 13:13:07;;;;;;;5.07;2.87;;;;;;;;;;4987246;28;20487;-75
2022/07/30 13:15:34;;;;;;;5.83;3.20;;;;;;;;;;4995271;28;20442;-76
2022/07/30 13:18:02;;;;;;;4.80;2.17;;;;;;;;;;4991800;28;20478;-75
2022/07/30 13:20:29;;;;;;;3.47;2.93;;;;;;;;;;4980169;28;20545;-75
2022/07/30 13:22:56;;;;;;;4.40;2.93;;;;;;;;;;4982955;28;20483;-76
2022/07/30 13:25:23;;;;;;;3.20;2.63;;;;;;;;;;4990427;28;20454;-76
2022/07/30 13:27:50;;;;;;;4.63;3.10;;;;;;;;;;4981910;28;20478;-74
2022/07/30 13:30:19;;;;;;;4.47;2.63;;;;;;;;;;4989389;28;20444;-76
2022/07/30 13:32:46;;;;;;;6.97;2.73;;;;;;;;;;4989589;28;20440;-75
2022/07/30 13:35:14;;;;;;;3.10;2.20;;;;;;;;;;4989362;28;20961;-74
2022/07/30 13:37:41;;;;;;;5.50;2.73;;;;;;;;;;4979806;28;20636;-75
2022/07/30 13:40:09;;;;;;;4.07;2.60;;;;;;;;;;4975212;28;20441;-73
2022/07/30 13:42:36;;;;;;;4.50;2.70;;;;;;;;;;4968230;28;20484;-77
2022/07/30 13:45:03;;;;;;;4.90;3.00;;;;;;;;;;4969809;28;20821;-77
2022/07/30 13:47:32;;;;;;;3.23;2.87;;;;;;;;;;4970051;28;20469;-76
2022/07/30 13:49:59;;;;;;;2.80;2.40;;;;;;;;;;4969803;28;20946;-77
2022/07/30 13:52:26;;;;;;;4.40;3.00;;;;;;;;;;4969808;28;20964;-76
2022/07/30 13:54:53;;;;;;;3.37;2.43;;;;;;;;;;4970723;28;20448;-77
2022/07/30 13:57:20;;;;;;;4.17;2.70;;;;;;;;;;4971420;28;20986;-77
2022/07/30 13:59:47;;;;;;;3.80;2.60;;;;;;;;;;4976610;28;20476;-78
2022/07/30 14:02:15;;;;;;;2.90;2.30;;;;;;;;;;4984464;28;20428;-77
2022/07/30 14:04:43;;;;;;;4.50;2.70;;;;;;;;;;4990997;28;21037;-79
2022/07/30 14:07:10;;;;;;;5.40;2.80;;;;;;;;;;4988847;28;20540;-77
2022/07/30 14:09:38;;;;;;;3.90;2.60;;;;;;;;;;4988558;28;20444;-80
2022/07/30 14:12:10;;;;;;;4.40;2.57;;;;;;;;;;4990743;28;20440;-76
2022/07/30 14:14:37;;;;;;;3.83;2.80;;;;;;;;;;4991888;28;20436;-76
2022/07/30 14:17:04;;;;;;;3.20;1.90;;;;;;;;;;4993383;28;20480;-77
2022/07/30 14:19:32;;;;;;;3.10;2.13;;;;;;;;;;4994513;28;20456;-77
2022/07/30 14:22:00;;;;;;;5.93;2.20;;;;;;;;;;4995007;28;20443;-77
2022/07/30 14:24:28;;;;;;;2.43;2.13;;;;;;;;;;4997927;28;20914;-77
2022/07/30 14:26:55;;;;;;;4.73;2.50;;;;;;;;;;4995227;28;20459;-77
2022/07/30 14:29:22;;;;;;;4.03;2.23;;;;;;;;;;4991985;28;20450;-77
2022/07/30 14:31:49;;;;;;;4.43;2.77;;;;;;;;;;4991939;28;20444;-79
2022/07/30 14:34:17;;;;;;;3.90;2.60;;;;;;;;;;4991975;28;20444;-77
2022/07/30 14:36:45;;;;;;;3.70;2.50;;;;;;;;;;4992347;28;20463;-76
2022/07/30 14:39:13;;;;;;;2.80;2.23;;;;;;;;;;5003320;28;20454;-76
2022/07/30 14:41:41;;;;;;;3.70;2.53;;;;;;;;;;5014032;28;20932;-77
2022/07/30 14:44:11;;;;;;;3.63;2.20;;;;;;;;;;5011706;28;20483;-76
2022/07/30 14:46:38;;;;;;;2.70;2.20;;;;;;;;;;4997765;28;20471;-76
2022/07/30 14:49:07;;;;;;;3.90;2.53;;;;;;;;;;5000594;28;20435;-76